Time;durP1;ratioP1;P1;durP2;ratioP2;P2;SDS_P1;SDS_P2;PMS_P1;PMS_P2;Temp;Humidity;BMP_temperature;BMP_pressure;BME280_temperature;BME280_humidity;BME280_pressure;Samples;Min_cycle;Max_cycle;Signal;HPM_P1;HPM_P2
2022/12/17 13:07:04;;;;;;;;;;;;;;;1.15;61.59;100806.34;5289694;33;35356;-70
2022/12/17 13:10:15;;;;;;;;;;;;;;;1.48;59.45;100816.00;5267845;33;35892;-71
2022/12/17 13:13:17;;;;;;;;;;;;;;;1.14;60.95;100833.09;5296160;33;44736;-71
2022/12/17 13:16:23;;;;;;;;;;;;;;;0.86;61.35;100832.06;5268701;33;35400;-71
2022/12/17 13:19:32;;;;;;;;;;;;;;;1.58;59.83;100835.94;5280498;33;34784;-72
2022/12/17 13:22:33;;;;;;;;;;;;;;;1.50;60.66;100835.91;5292815;33;36357;-72
2022/12/17 13:25:35;;;;;;;;;;;;;;;2.35;57.76;100853.47;5279161;32;36058;-74
2022/12/17 13:28:37;;;;;;;;;;;;;;;1.26;60.02;100856.47;5283594;33;35673;-71
2022/12/17 13:31:46;;;;;;;;;;;;;;;1.81;58.75;100862.81;5265324;33;35524;-72
2022/12/17 13:34:52;;;;;;;;;;;;;;;1.71;59.63;100860.19;5290532;32;44791;-71
2022/12/17 13:38:12;;;;;;;;;;;;;;;1.25;60.48;100855.62;5265480;33;36036;-72
2022/12/17 13:41:15;;;;;;;;;;;;;;;0.94;61.79;100884.72;5256489;33;45794;-71
2022/12/17 13:44:21;;;;;;;;;;;;;;;1.14;61.13;100898.69;5285534;33;35545;-71
2022/12/17 13:47:26;;;;;;;;;;;;;;;1.16;60.87;100909.03;5269554;33;34848;-72
2022/12/17 13:50:29;;;;;;;;;;;;;;;0.93;61.66;100922.69;5287443;33;35278;-71
2022/12/17 13:53:36;;;;;;;;;;;;;;;1.40;60.71;100919.59;5282407;32;36138;-71
2022/12/17 13:56:38;;;;;;;;;;;;;;;1.20;61.15;100906.50;5281918;33;35411;-72
2022/12/17 13:59:40;;;;;;;;;;;;;;;2.02;59.28;100911.28;5287006;33;35992;-71
2022/12/17 14:02:42;;;;;;;;;;;;;;;1.80;58.60;100917.22;5269802;33;35838;-72
2022/12/17 14:05:44;;;;;;;;;;;;;;;2.28;57.37;100916.56;5300380;32;35569;-72
2022/12/17 14:08:46;;;;;;;;;;;;;;;2.42;57.05;100914.03;5269159;33;44856;-72
2022/12/17 14:15:25;;;;;;;;;;;;;;;1.12;59.33;100926.28;5287412;33;37509;-71
2022/12/17 14:18:27;;;;;;;;;;;;;;;1.78;58.70;100934.50;5280832;32;35479;-71
2022/12/17 14:21:29;;;;;;;;;;;;;;;2.75;55.89;100949.56;5298814;33;35850;-72
2022/12/17 14:24:31;;;;;;;;;;;;;;;2.39;56.47;100952.94;5281039;33;35515;-72
2022/12/17 14:27:34;;;;;;;;;;;;;;;1.46;58.98;100968.84;5297842;32;35662;-72
2022/12/17 14:30:37;;;;;;;;;;;;;;;1.60;58.97;100972.41;5267105;33;35428;-73
2022/12/17 14:34:06;;;;;;;;;;;;;;;1.13;60.13;100973.75;5267209;33;44955;-72
2022/12/17 14:37:14;;;;;;;;;;;;;;;0.33;62.60;100975.53;5287092;33;35509;-70
2022/12/17 14:40:16;;;;;;;;;;;;;;;1.17;61.29;100983.31;5259756;33;46974;-72
2022/12/17 14:43:22;;;;;;;;;;;;;;;1.52;59.81;100989.63;5286626;33;35507;-71
2022/12/17 14:46:24;;;;;;;;;;;;;;;1.29;59.80;100997.22;5281005;32;35951;-71
2022/12/17 14:49:26;;;;;;;;;;;;;;;1.48;59.57;101006.00;5274128;33;35490;-72
2022/12/17 14:52:39;;;;;;;;;;;;;;;1.16;60.67;101013.50;5282941;33;36761;-70
2022/12/17 14:55:50;;;;;;;;;;;;;;;1.47;59.89;101014.62;5269645;33;35551;-71
2022/12/17 14:58:56;;;;;;;;;;;;;;;1.01;60.18;101021.09;5286907;33;35260;-73
2022/12/17 15:02:10;;;;;;;;;;;;;;;1.18;60.75;101023.87;5269159;33;35957;-71
2022/12/17 15:05:13;;;;;;;;;;;;;;;1.17;60.98;101038.53;5290568;32;36509;-70
2022/12/17 15:08:14;;;;;;;;;;;;;;;1.19;59.70;101042.00;5292450;32;44331;-71
2022/12/17 15:11:18;;;;;;;;;;;;;;;1.04;60.17;101045.31;5269034;33;35287;-71
2022/12/17 15:14:20;;;;;;;;;;;;;;;1.41;59.85;101052.56;5297194;33;35021;-71
2022/12/17 15:17:22;;;;;;;;;;;;;;;1.74;58.77;101068.41;5269626;33;34690;-73
2022/12/17 15:20:24;;;;;;;;;;;;;;;0.80;61.05;101068.34;5287165;33;35685;-72
2022/12/17 15:23:26;;;;;;;;;;;;;;;1.09;60.15;101079.00;5288282;32;35657;-71
2022/12/17 15:26:28;;;;;;;;;;;;;;;1.26;59.55;101086.97;5286297;32;35440;-72
2022/12/17 15:29:30;;;;;;;;;;;;;;;1.00;60.74;101094.44;5288781;33;35103;-71
2022/12/17 15:32:32;;;;;;;;;;;;;;;0.98;60.58;101096.16;5265617;33;34666;-71
2022/12/17 15:35:34;;;;;;;;;;;;;;;1.62;59.34;101102.84;5286325;33;35216;-72
2022/12/17 15:38:36;;;;;;;;;;;;;;;0.15;63.09;101112.31;5265636;32;35694;-72
2022/12/17 15:44:59;;;;;;;;;;;;;;;1.11;61.35;101104.94;5280196;32;36289;-72
2022/12/17 15:48:01;;;;;;;;;;;;;;;0.99;60.38;101108.25;5269631;33;35578;-72
2022/12/17 15:51:03;;;;;;;;;;;;;;;0.64;62.97;101123.31;5286551;33;35664;-71
2022/12/17 15:54:05;;;;;;;;;;;;;;;1.26;61.06;101123.22;5269229;33;35448;-71
2022/12/17 15:57:07;;;;;;;;;;;;;;;0.91;61.97;101113.34;5288002;33;35197;-73
2022/12/17 16:00:13;;;;;;;;;;;;;;;0.97;61.80;101128.94;5279669;33;36323;-73
2022/12/17 16:03:15;;;;;;;;;;;;;;;0.09;64.19;101140.66;5290573;33;46533;-72
2022/12/17 16:06:17;;;;;;;;;;;;;;;0.15;64.63;101133.00;5276377;33;35650;-72
2022/12/17 16:09:23;;;;;;;;;;;;;;;-0.19;64.95;101127.31;5267623;33;35048;-69
2022/12/17 16:12:25;;;;;;;;;;;;;;;0.97;62.58;101128.94;5296744;32;35348;-71
2022/12/17 16:15:27;;;;;;;;;;;;;;;0.55;63.29;101137.03;5269165;33;37870;-72
2022/12/17 16:18:29;;;;;;;;;;;;;;;0.28;63.41;101144.41;5286450;33;35586;-70
2022/12/17 16:21:31;;;;;;;;;;;;;;;0.50;62.55;101138.66;5271632;33;36150;-71
2022/12/17 16:24:32;;;;;;;;;;;;;;;0.19;63.36;101140.84;5291056;33;35139;-71
2022/12/17 16:27:35;;;;;;;;;;;;;;;0.60;62.26;101139.69;5286563;32;35814;-71
2022/12/17 16:30:36;;;;;;;;;;;;;;;1.24;60.01;101137.88;5275475;33;36116;-73
2022/12/17 16:33:39;;;;;;;;;;;;;;;0.88;61.46;101156.41;5282483;33;36341;-73
2022/12/17 16:36:41;;;;;;;;;;;;;;;0.54;61.86;101164.59;5279161;32;35484;-71
2022/12/17 16:39:43;;;;;;;;;;;;;;;1.65;59.08;101163.31;5274820;33;35093;-71
2022/12/17 16:42:45;;;;;;;;;;;;;;;0.31;61.95;101178.91;5278613;33;44470;-73
2022/12/17 16:45:48;;;;;;;;;;;;;;;0.85;60.39;101190.91;5288693;33;34932;-72
2022/12/17 16:48:49;;;;;;;;;;;;;;;0.65;60.76;101190.63;5287789;33;36452;-71
2022/12/17 16:51:52;;;;;;;;;;;;;;;0.38;61.50;101204.00;5268404;33;36181;-72
2022/12/17 16:54:55;;;;;;;;;;;;;;;0.03;62.49;101215.50;5296192;33;36006;-72
2022/12/17 16:57:57;;;;;;;;;;;;;;;0.51;62.00;101218.88;5277443;33;35610;-72
2022/12/17 17:00:59;;;;;;;;;;;;;;;-0.16;63.53;101227.25;5285705;33;35608;-73
2022/12/17 17:04:02;;;;;;;;;;;;;;;0.04;63.24;101222.41;5272477;33;34781;-71
2022/12/17 17:07:04;;;;;;;;;;;;;;;0.02;62.76;101224.97;5276021;33;35259;-71
2022/12/17 17:10:06;;;;;;;;;;;;;;;0.48;62.48;101225.72;5279127;33;35913;-73
2022/12/17 17:13:09;;;;;;;;;;;;;;;0.48;62.10;101231.78;5277295;32;36369;-72
2022/12/17 17:16:11;;;;;;;;;;;;;;;0.97;60.40;101229.91;5295679;33;35588;-69
2022/12/17 17:19:13;;;;;;;;;;;;;;;0.41;62.33;101245.44;5267809;33;36137;-71
2022/12/17 17:22:16;;;;;;;;;;;;;;;0.59;62.92;101242.28;5295580;33;45323;-72
2022/12/17 17:25:18;;;;;;;;;;;;;;;0.24;63.52;101228.78;5271731;33;35651;-70
2022/12/17 17:28:20;;;;;;;;;;;;;;;-0.15;64.71;101234.16;5275193;33;36021;-73
2022/12/17 17:31:22;;;;;;;;;;;;;;;-0.08;65.07;101239.44;5288912;32;35510;-71
2022/12/17 17:34:27;;;;;;;;;;;;;;;-0.29;66.75;101252.84;5267592;33;35004;-72
2022/12/17 17:37:29;;;;;;;;;;;;;;;-0.56;67.44;101252.31;5289903;33;35706;-72
2022/12/17 17:40:31;;;;;;;;;;;;;;;0.22;65.30;101256.34;5260414;33;35154;-71
2022/12/17 17:43:33;;;;;;;;;;;;;;;0.37;65.02;101260.87;5286820;33;36300;-70
2022/12/17 17:46:35;;;;;;;;;;;;;;;-0.14;65.61;101260.00;5271297;33;35714;-73
2022/12/17 17:49:37;;;;;;;;;;;;;;;0.24;65.39;101273.59;5286288;33;35415;-71
2022/12/17 17:52:38;;;;;;;;;;;;;;;-0.19;66.43;101277.16;5283969;33;36089;-71
2022/12/17 17:55:40;;;;;;;;;;;;;;;-0.23;66.81;101285.69;5271250;33;35770;-73
2022/12/17 17:58:43;;;;;;;;;;;;;;;0.16;65.07;101287.25;5285731;33;35367;-72
2022/12/17 18:01:46;;;;;;;;;;;;;;;-0.19;66.30;101284.91;5268392;33;44519;-70
2022/12/17 18:04:48;;;;;;;;;;;;;;;0.55;63.37;101281.88;5299885;32;36232;-72
2022/12/17 18:07:50;;;;;;;;;;;;;;;0.82;62.88;101289.19;5273485;33;36099;-72
2022/12/17 18:10:56;;;;;;;;;;;;;;;0.52;62.52;101298.25;5283147;33;36027;-71
2022/12/17 18:13:58;;;;;;;;;;;;;;;0.04;64.10;101300.81;5286824;33;34979;-72
2022/12/17 18:17:00;;;;;;;;;;;;;;;0.76;62.79;101304.63;5269098;33;35668;-72
2022/12/17 18:20:02;;;;;;;;;;;;;;;0.56;61.93;101306.03;5290830;33;35826;-72
2022/12/17 18:23:04;;;;;;;;;;;;;;;0.48;63.27;101321.44;5281799;32;35613;-72
2022/12/17 18:26:09;;;;;;;;;;;;;;;0.99;61.34;101329.16;5285548;33;36205;-72
2022/12/17 18:29:13;;;;;;;;;;;;;;;0.25;63.30;101328.78;5268390;33;36101;-71
2022/12/17 18:32:15;;;;;;;;;;;;;;;1.18;61.61;101350.12;5266623;33;44851;-72
2022/12/17 18:35:17;;;;;;;;;;;;;;;1.30;61.30;101339.97;5285594;33;36169;-71
2022/12/17 18:38:19;;;;;;;;;;;;;;;1.22;60.08;101342.41;5258238;33;34697;-71
2022/12/17 18:44:41;;;;;;;;;;;;;;;1.14;60.39;101354.38;5270794;33;35833;-72
2022/12/17 18:47:43;;;;;;;;;;;;;;;1.39;59.86;101363.38;5277336;33;35247;-71
2022/12/17 18:50:45;;;;;;;;;;;;;;;1.13;60.67;101368.19;5289925;33;44897;-71
2022/12/17 18:53:47;;;;;;;;;;;;;;;0.62;62.27;101384.62;5278946;33;35662;-71
2022/12/17 18:56:49;;;;;;;;;;;;;;;0.05;64.24;101405.09;5297369;32;35200;-72
2022/12/17 19:00:07;;;;;;;;;;;;;;;1.03;61.82;101393.09;5270754;33;35654;-71
2022/12/17 19:03:09;;;;;;;;;;;;;;;0.70;61.84;101413.19;5287273;33;34676;-72
2022/12/17 19:06:11;;;;;;;;;;;;;;;0.48;62.33;101415.41;5276763;33;36126;-72
2022/12/17 19:09:26;;;;;;;;;;;;;;;1.39;59.91;101414.31;5272844;33;35329;-72
2022/12/17 19:12:28;;;;;;;;;;;;;;;0.96;60.37;101406.75;5297699;33;35757;-70
2022/12/17 19:15:30;;;;;;;;;;;;;;;1.93;58.34;101432.34;5269523;33;35314;-71
2022/12/17 19:18:32;;;;;;;;;;;;;;;1.03;60.39;101431.91;5286109;33;35553;-71
2022/12/17 19:21:34;;;;;;;;;;;;;;;0.74;60.82;101446.94;5271850;33;35133;-71
2022/12/17 19:24:36;;;;;;;;;;;;;;;0.77;61.84;101438.34;5283842;33;36365;-71
2022/12/17 19:27:38;;;;;;;;;;;;;;;0.75;61.46;101452.97;5273175;33;36147;-71
2022/12/17 19:30:40;;;;;;;;;;;;;;;0.41;62.40;101446.31;5278392;32;36082;-71
2022/12/17 19:33:42;;;;;;;;;;;;;;;0.62;61.92;101457.06;5282995;33;34760;-72
2022/12/17 19:36:44;;;;;;;;;;;;;;;0.43;62.63;101465.31;5269230;33;36282;-72
2022/12/17 19:39:46;;;;;;;;;;;;;;;1.39;60.06;101461.81;5275816;32;44169;-71
2022/12/17 19:42:48;;;;;;;;;;;;;;;0.79;60.80;101485.84;5268023;33;35813;-72
2022/12/17 19:45:50;;;;;;;;;;;;;;;0.49;61.14;101479.22;5282819;33;35883;-72
2022/12/17 19:48:52;;;;;;;;;;;;;;;1.09;60.96;101485.50;5276021;32;35245;-71
2022/12/17 19:51:58;;;;;;;;;;;;;;;0.21;62.11;101489.88;5279959;33;36062;-72
2022/12/17 19:55:00;;;;;;;;;;;;;;;0.91;60.77;101487.78;5297253;33;35497;-71
2022/12/17 19:58:02;;;;;;;;;;;;;;;0.94;60.80;101493.00;5279402;33;35421;-71
2022/12/17 20:01:11;;;;;;;;;;;;;;;1.91;57.72;101501.47;5286169;33;36173;-71
2022/12/17 20:04:14;;;;;;;;;;;;;;;0.68;60.29;101508.94;5273516;33;36342;-71
2022/12/17 20:07:16;;;;;;;;;;;;;;;0.71;60.41;101516.75;5289589;32;46114;-71
2022/12/17 20:10:18;;;;;;;;;;;;;;;1.54;58.88;101505.22;5281114;33;36104;-71
2022/12/17 20:13:20;;;;;;;;;;;;;;;0.75;60.72;101526.31;5277888;32;36023;-72
2022/12/17 20:16:22;;;;;;;;;;;;;;;0.67;61.62;101521.84;5296313;33;35474;-72
2022/12/17 20:19:25;;;;;;;;;;;;;;;1.10;58.89;101517.47;5279568;32;35920;-70
2022/12/17 20:22:27;;;;;;;;;;;;;;;1.69;57.94;101517.56;5288133;33;35129;-72
2022/12/17 20:25:28;;;;;;;;;;;;;;;1.34;58.76;101528.22;5280337;33;35866;-71
2022/12/17 20:28:30;;;;;;;;;;;;;;;1.12;59.17;101536.47;5282720;33;35534;-70
2022/12/17 20:31:32;;;;;;;;;;;;;;;1.16;59.56;101535.66;5286946;33;36164;-72
2022/12/17 20:34:34;;;;;;;;;;;;;;;1.94;57.65;101536.94;5266335;33;36012;-72
2022/12/17 20:37:36;;;;;;;;;;;;;;;1.55;58.52;101553.62;5284918;33;36005;-71
2022/12/17 20:40:39;;;;;;;;;;;;;;;1.63;58.24;101552.91;5248181;33;35773;-72
2022/12/17 20:43:43;;;;;;;;;;;;;;;2.10;57.14;101570.00;5294596;32;35464;-72
2022/12/17 20:46:45;;;;;;;;;;;;;;;2.54;55.34;101570.62;5269500;33;44846;-71
2022/12/17 20:49:48;;;;;;;;;;;;;;;2.18;56.25;101569.25;5285090;32;36032;-73
2022/12/17 20:52:49;;;;;;;;;;;;;;;1.40;58.33;101582.72;5281499;33;36444;-71
2022/12/17 20:55:58;;;;;;;;;;;;;;;1.91;57.05;101581.84;5280085;32;36198;-72
2022/12/17 20:59:01;;;;;;;;;;;;;;;1.28;59.31;101595.47;5288140;32;36194;-71
2022/12/17 21:02:03;;;;;;;;;;;;;;;2.02;56.91;101588.06;5270523;33;36200;-71
2022/12/17 21:05:05;;;;;;;;;;;;;;;2.72;54.77;101599.41;5301185;32;35897;-73
2022/12/17 21:08:07;;;;;;;;;;;;;;;0.94;59.58;101617.25;5284597;32;35419;-72
2022/12/17 21:11:09;;;;;;;;;;;;;;;0.29;61.29;101629.69;5275205;33;36018;-72
2022/12/17 21:14:12;;;;;;;;;;;;;;;0.48;60.75;101635.28;5288238;33;34752;-72
2022/12/17 21:17:14;;;;;;;;;;;;;;;0.31;60.76;101641.78;5269898;33;45475;-72
2022/12/17 21:20:16;;;;;;;;;;;;;;;0.63;60.56;101652.84;5288123;33;34939;-71
2022/12/17 21:23:19;;;;;;;;;;;;;;;0.43;60.16;101657.59;5272340;33;35305;-72
2022/12/17 21:26:25;;;;;;;;;;;;;;;0.60;60.25;101655.38;5286524;33;36051;-71
2022/12/17 21:29:27;;;;;;;;;;;;;;;-0.24;63.46;101666.34;5271228;33;35419;-71
2022/12/17 21:32:29;;;;;;;;;;;;;;;-0.34;64.18;101666.91;5267161;33;36391;-71
2022/12/17 21:35:34;;;;;;;;;;;;;;;0.67;60.78;101661.56;5286734;33;35257;-70
2022/12/17 21:38:36;;;;;;;;;;;;;;;0.34;61.56;101666.88;5256553;33;35472;-72
2022/12/17 21:41:39;;;;;;;;;;;;;;;0.41;61.23;101669.62;5280313;33;36036;-71
2022/12/17 21:44:45;;;;;;;;;;;;;;;0.15;62.82;101670.72;5281191;32;45075;-70
2022/12/17 21:47:47;;;;;;;;;;;;;;;0.84;61.01;101680.03;5292722;32;35987;-71
2022/12/17 21:50:49;;;;;;;;;;;;;;;0.40;61.68;101675.62;5287277;33;35629;-71
2022/12/17 21:53:52;;;;;;;;;;;;;;;-0.03;62.52;101681.50;5271513;33;34729;-71
2022/12/17 21:56:54;;;;;;;;;;;;;;;-0.35;63.86;101688.44;5298888;32;35548;-71
2022/12/17 21:59:56;;;;;;;;;;;;;;;0.54;61.29;101684.59;5270006;33;35269;-71
2022/12/17 22:02:58;;;;;;;;;;;;;;;0.02;63.82;101692.81;5302222;32;35539;-71
2022/12/17 22:06:04;;;;;;;;;;;;;;;0.08;62.75;101689.53;5287075;32;35197;-71
2022/12/17 22:09:06;;;;;;;;;;;;;;;0.50;61.49;101685.34;5288981;33;35898;-70
2022/12/17 22:15:46;;;;;;;;;;;;;;;0.08;62.48;101710.19;5270480;33;45854;-71
2022/12/17 22:18:49;;;;;;;;;;;;;;;1.02;60.26;101703.72;5286440;33;35390;-70
2022/12/17 22:21:51;;;;;;;;;;;;;;;1.08;59.80;101711.59;5276382;33;34784;-70
2022/12/17 22:24:58;;;;;;;;;;;;;;;1.17;59.65;101721.31;5281123;33;34908;-70
2022/12/17 22:28:09;;;;;;;;;;;;;;;1.33;59.44;101725.94;5279862;33;35743;-70
2022/12/17 22:34:33;;;;;;;;;;;;;;;0.85;60.33;101738.75;5284710;33;36183;-72
2022/12/17 22:37:54;;;;;;;;;;;;;;;1.31;59.65;101731.09;5271967;33;36992;-71
2022/12/17 22:44:56;;;;;;;;;;;;;;;0.39;61.44;101754.06;5286366;33;36592;-70
2022/12/17 22:48:10;;;;;;;;;;;;;;;1.11;58.96;101747.06;5279315;33;35476;-71
2022/12/17 22:51:12;;;;;;;;;;;;;;;-0.12;62.72;101758.81;5295674;32;34976;-70
2022/12/17 22:54:29;;;;;;;;;;;;;;;0.06;62.38;101760.97;5278003;33;35805;-70
2022/12/17 22:57:31;;;;;;;;;;;;;;;0.12;63.37;101753.38;5239769;33;970756;-72
2022/12/17 23:00:38;;;;;;;;;;;;;;;0.16;62.79;101763.84;5284562;33;36216;-71
2022/12/17 23:03:40;;;;;;;;;;;;;;;-0.05;63.58;101769.34;5271033;33;35579;-70
2022/12/17 23:06:46;;;;;;;;;;;;;;;0.17;62.49;101775.06;5289984;32;35275;-71
2022/12/17 23:09:48;;;;;;;;;;;;;;;0.41;62.31;101777.38;5271510;33;44587;-71
2022/12/17 23:12:51;;;;;;;;;;;;;;;0.96;60.29;101779.53;5275144;33;35463;-71
2022/12/17 23:15:53;;;;;;;;;;;;;;;1.07;59.61;101788.41;5292715;32;36473;-71
2022/12/17 23:18:55;;;;;;;;;;;;;;;0.52;61.48;101794.94;5279994;33;35246;-71
2022/12/17 23:21:56;;;;;;;;;;;;;;;-0.08;62.95;101799.37;5292794;33;35351;-70
2022/12/17 23:24:58;;;;;;;;;;;;;;;0.60;61.45;101797.69;5270707;33;34861;-73
2022/12/17 23:28:00;;;;;;;;;;;;;;;0.56;62.31;101797.56;5285066;33;35328;-70
2022/12/17 23:31:20;;;;;;;;;;;;;;;0.29;60.92;101801.22;5277237;32;35516;-71
2022/12/17 23:34:22;;;;;;;;;;;;;;;-0.23;63.88;101812.78;5267433;33;44590;-69
2022/12/17 23:37:24;;;;;;;;;;;;;;;-0.17;63.82;101810.38;5286468;33;35861;-70
2022/12/17 23:40:26;;;;;;;;;;;;;;;0.74;61.77;101819.59;5251675;32;35447;-70
2022/12/17 23:43:28;;;;;;;;;;;;;;;1.06;59.63;101822.94;5286359;33;36125;-71
2022/12/17 23:46:30;;;;;;;;;;;;;;;1.01;59.84;101823.66;5269615;33;34765;-71
2022/12/17 23:49:32;;;;;;;;;;;;;;;0.70;61.15;101837.59;5295364;32;35317;-71
2022/12/17 23:52:34;;;;;;;;;;;;;;;1.21;60.09;101839.63;5282628;32;36092;-72
2022/12/17 23:55:36;;;;;;;;;;;;;;;1.20;59.70;101840.50;5270432;33;36000;-72
2022/12/17 23:58:38;;;;;;;;;;;;;;;1.36;59.34;101845.19;5286702;33;35552;-73
